TFM - Tactical Decision Aid (Experimental) INFO Settings
ID: Runway Winds: CIG/VIS Threshold: METAR Board: Map:

KMSP - Minneapolis/St Paul Intl

Updated at: 2259 UTC 20 Feb 2018
Latest TAF at: 2025 UTC 20 Feb 2018

TAF Board

Time2253Z20/23Z21/00Z21/01Z21/02Z21/03Z21/04Z21/05Z21/06Z21/07Z21/08Z21/09Z21/10Z21/11Z
TypeOBSPRVLPRVLPRVLPRVLPRVLPRVLPRVLPRVLPRVLPRVLPRVLPRVLPRVL
VIS10>6>6>6>6>6>6>6>6>6>6>6>6>6
CIG--252525--------------------
CoverSCTBKNBKNBKNSCTSCTSCTSCTSCTSCTSCTSCTFEWFEW
FltCatVFRMVFRMVFRMVFRVFRVFRVFRVFRVFRVFRVFRVFRVFRVFR
WX----------------------------
WDir300290290290290290290290290290290290270270
WSpd131010109999999944
WGst----------------------------
R04/22
XWnd139998888888833
HWnd-3-4-4-4-4-4-4-4-4-4-4-4-3-3
R12/30
XWnd-0-2-2-2-2-2-2-2-2-2-2-2-2-2
HWnd-13-10-10-10-9-9-9-9-9-9-9-9-3-3
R17/35
XWnd-10-9-9-9-8-8-8-8-8-8-8-8-4-4
HWnd-8-5-5-5-5-5-5-5-5-5-5-5-1-1
TAF
KMSP 202025Z 2020/2124 29012KT P6SM OVC020
  FM202200 29010KT P6SM BKN025
  FM210200 29009KT P6SM SCT040
  FM211000 27004KT P6SM FEW250
  FM211400 24005KT P6SM SKC


METAR Board

Time20/11Z 20/12Z 20/13Z 20/14Z 20/15Z 20/16Z 20/17Z 20/18Z 20/19Z 20/20Z 20/21Z 20/22Z
VIS3 10 10 9 8 9 10 10 10 10 10 10
CIG27 30 25 24 10 12 10 11 16 19 23 --
CoverOVCOVCOVCOVCOVCOVCOVCOVCOVCOVCOVCSCT
FltCatMVFRMVFRMVFRMVFRMVFRMVFRMVFRMVFRMVFRMVFRMVFRVFR
WX-SN -PL BR-FZDZ---FZDZ SN-FZDZ SN-SN------------
WDir320340340340310320290290290280290280
WSpd8 6 7 7 8 7 8 10 12 11 14 13
WGst-- -- -- -- -- -- -- -- -- -- -- --
METAR
KMSP 201053Z 32008KT 3SM -SNPL BR FEW019 OVC027 M07/M07 A2986 RMK AO2 SLP124 P0002 T10671072
KMSP 201148Z 34006KT 10SM -FZDZ OVC030 M07/M08 A2986 RMK AO2 SLP126 SNPLE26FZDZB26 4/002 P0000 60005 70018 I1000 I6000 T10671078 11061 21067 51029
KMSP 201258Z 34007KT 10SM OVC025 M07/M08 A2985 RMK AO2 FZDZE58 P0000 I1000 T10671078
KMSP 201353Z 34007KT 9SM R30L/5000VP6000FT -FZDZSN FEW010 OVC024 M07/M08 A2987 RMK AO2 FZDZE1258B44SNB44 SLP127 P0000 I1000 T10671078
KMSP 201453Z 31008KT 8SM -FZDZSN OVC010 M07/M08 A2989 RMK AO2 PRESRR SLP138 P0000 60000 I1000 I3000 T10671078 53010
KMSP 201604Z 32007KT 9SM -SN OVC012 M08/M08 A2989 RMK AO2 P0000 T10781083
KMSP 201653Z 29008KT 10SM OVC010 M07/M09 A2992 RMK AO2 SNE10 SLP147 P0000 T10721089
KMSP 201753Z 29010KT 10SM OVC011 M07/M09 A2996 RMK AO2 SLP159 4/002 60000 I6000 T10721094 11067 21078 53021
KMSP 201853Z 29012KT 10SM OVC016 M07/M09 A2996 RMK AO2 SLP158 T10671094
KMSP 201953Z 28011KT 10SM OVC019 M07/M10 A2998 RMK AO2 SLP166 T10671100
KMSP 202053Z 29014KT 10SM OVC023 M07/M11 A3001 RMK AO2 SLP178 T10671106 53018
KMSP 202153Z 28013KT 10SM SCT027 SCT250 M07/M12 A3006 RMK AO2 SLP194 T10671117

TAF/METAR Board Legend

Potential Impact
  None Marginal Slight Moderate High
Visibility (sm) >5 3≤X≤5 1≤X<3 <1
Ceiling (100 ft) >30 10≤X≤30 5≤X<10 <5
Wind Speed (kt) <10 10≤X<20 20≤X<30 ≥30
Wind Gust (kt) <15 15≤X<25 25≤X<35 ≥35
Weather No Wx Reported VCTS -TS,-FZRA TS,FZRA +TS,+FZRA




Page loaded:  22:59 UTC  |   02:59 PM Pacific  |   03:59 PM Mountain  |   04:59 PM Central  |   05:59 PM Eastern